createdAt,value
2018-08-06T00:01:05.728Z,28.60
2018-08-06T00:11:14.067Z,28.60
2018-08-06T00:16:18.014Z,28.70
2018-08-06T00:26:25.759Z,28.70
2018-08-06T00:31:29.736Z,28.70
2018-08-06T00:36:33.551Z,28.70
2018-08-06T00:41:37.607Z,28.80
2018-08-06T00:46:41.913Z,28.80
2018-08-06T00:51:48.735Z,28.60
2018-08-06T00:56:52.919Z,28.60
2018-08-06T01:01:57.433Z,28.50
2018-08-06T01:07:01.630Z,28.50
2018-08-06T01:12:05.994Z,28.40
2018-08-06T01:17:10.677Z,28.40
2018-08-06T01:22:15.465Z,28.40
2018-08-06T01:27:20.072Z,28.40
2018-08-06T01:32:24.236Z,28.30
2018-08-06T01:37:29.466Z,28.30
2018-08-06T01:42:33.908Z,28.30
2018-08-06T01:47:38.207Z,28.10
2018-08-06T01:52:43.365Z,27.90
2018-08-06T01:57:47.217Z,28.00
2018-08-06T02:02:51.781Z,27.90
2018-08-06T02:07:55.894Z,27.80
2018-08-06T02:13:00.107Z,27.70
2018-08-06T02:18:05.979Z,27.60
2018-08-06T02:23:10.497Z,27.50
2018-08-06T02:28:14.401Z,27.50
2018-08-06T02:33:18.500Z,27.50
2018-08-06T02:38:22.501Z,27.50
2018-08-06T02:43:26.833Z,27.50
2018-08-06T02:48:30.870Z,27.60
2018-08-06T02:53:34.981Z,27.40
2018-08-06T02:58:53.932Z,27.10
2018-08-06T03:03:58.023Z,26.80
2018-08-06T03:09:01.850Z,26.70
2018-08-06T03:19:12.426Z,26.70
2018-08-06T03:24:16.243Z,26.60
2018-08-06T03:29:20.050Z,26.40
2018-08-06T03:34:23.887Z,26.20
2018-08-06T03:39:31.514Z,26.20
2018-08-06T03:44:37.034Z,25.90
2018-08-06T03:49:41.955Z,25.50
2018-08-06T03:54:45.771Z,25.30
2018-08-06T03:59:49.751Z,25.30
2018-08-06T04:04:56.775Z,25.20
2018-08-06T04:10:07.255Z,25.10
2018-08-06T04:15:11.777Z,25.10
2018-08-06T04:20:15.812Z,25.00
2018-08-06T04:25:19.557Z,25.00
2018-08-06T04:30:30.114Z,25.20
2018-08-06T04:35:33.983Z,25.10
2018-08-06T04:45:48.431Z,24.90
2018-08-06T04:50:52.290Z,24.90
2018-08-06T04:55:56.284Z,24.90
2018-08-06T05:01:00.085Z,24.90
2018-08-06T05:06:03.980Z,25.00
2018-08-06T05:16:11.427Z,25.30
2018-08-06T05:21:15.531Z,25.30
2018-08-06T05:26:19.805Z,25.30
2018-08-06T05:31:25.332Z,25.40
2018-08-06T05:41:42.842Z,25.50
2018-08-06T05:46:47.300Z,25.50
2018-08-06T05:51:51.477Z,25.70
2018-08-06T05:56:55.394Z,25.80
2018-08-06T06:01:59.538Z,26.00
2018-08-06T06:07:03.632Z,26.00
2018-08-06T06:12:08.060Z,26.00
2018-08-06T06:17:12.739Z,26.10
2018-08-06T06:22:17.588Z,26.30
2018-08-06T06:27:21.861Z,26.40
2018-08-06T06:32:25.943Z,26.50
2018-08-06T06:37:29.860Z,26.70
2018-08-06T06:42:34.360Z,26.40
2018-08-06T06:47:39.632Z,26.40
2018-08-06T06:52:43.510Z,26.40
2018-08-06T06:57:47.705Z,26.40
2018-08-06T07:02:51.508Z,26.60
2018-08-06T07:07:55.885Z,26.80
2018-08-06T07:12:59.792Z,27.10
2018-08-06T07:18:10.675Z,27.40
2018-08-06T07:23:14.411Z,27.60
2018-08-06T07:28:18.682Z,27.70
2018-08-06T07:33:22.727Z,27.30
2018-08-06T07:38:26.553Z,26.90
2018-08-06T07:43:30.647Z,26.70
2018-08-06T07:48:34.518Z,26.80
2018-08-06T07:53:38.553Z,27.10
2018-08-06T07:58:42.411Z,27.00
2018-08-06T08:03:46.275Z,27.20
2018-08-06T08:08:50.245Z,27.40
2018-08-06T08:13:54.267Z,27.30
2018-08-06T08:18:58.157Z,27.30
2018-08-06T08:24:02.557Z,27.20
2018-08-06T08:29:06.544Z,27.40
2018-08-06T08:34:12.240Z,27.70
2018-08-06T08:39:16.129Z,27.40
2018-08-06T08:44:19.819Z,27.70
2018-08-06T08:49:24.096Z,28.10
2018-08-06T08:54:27.864Z,28.40
2018-08-06T08:59:31.644Z,28.70
2018-08-06T09:04:35.776Z,29.10
2018-08-06T09:09:39.900Z,29.00
2018-08-06T09:14:44.387Z,29.10
2018-08-06T09:19:48.504Z,29.60
2018-08-06T09:24:52.757Z,29.80
2018-08-06T09:29:56.624Z,29.60
2018-08-06T09:35:00.631Z,29.80
2018-08-06T09:40:06.170Z,30.10
2018-08-06T09:45:14.004Z,30.30
2018-08-06T09:50:18.452Z,30.50
2018-08-06T09:55:26.057Z,30.70
2018-08-06T10:00:35.503Z,30.90
2018-08-06T10:05:41.621Z,31.30
2018-08-06T10:10:45.608Z,31.60
2018-08-06T10:15:51.382Z,31.90
2018-08-06T10:20:55.428Z,31.90
2018-08-06T10:25:59.321Z,32.30
2018-08-06T10:31:03.415Z,32.40
2018-08-06T10:36:07.216Z,32.50
2018-08-06T10:41:11.753Z,32.50
2018-08-06T10:46:16.113Z,32.30
2018-08-06T10:51:20.053Z,32.60
2018-08-06T10:56:24.386Z,32.90
2018-08-06T11:01:30.687Z,33.40
2018-08-06T11:06:37.532Z,33.70
2018-08-06T11:11:41.613Z,34.00
2018-08-06T11:16:45.846Z,34.20
2018-08-06T11:21:50.280Z,34.60
2018-08-06T11:26:55.239Z,34.80
2018-08-06T11:31:59.355Z,34.80
2018-08-06T11:37:03.496Z,35.00
2018-08-06T11:42:07.254Z,35.30
2018-08-06T11:47:11.659Z,35.40
2018-08-06T11:52:15.516Z,35.60
2018-08-06T11:57:19.739Z,36.00
2018-08-06T12:02:25.004Z,35.60
2018-08-06T12:07:29.051Z,35.80
2018-08-06T12:12:33.370Z,35.70
2018-08-06T12:17:38.121Z,36.30
2018-08-06T12:22:43.279Z,36.90
2018-08-06T12:27:48.943Z,37.10
2018-08-06T12:37:58.557Z,37.70
2018-08-06T12:43:03.004Z,37.90
2018-08-06T12:48:07.378Z,38.00
2018-08-06T12:53:11.644Z,38.50
2018-08-06T12:58:16.247Z,38.90
2018-08-06T13:03:22.296Z,38.90
2018-08-06T13:08:27.553Z,39.30
2018-08-06T13:13:31.771Z,39.40
2018-08-06T13:18:38.779Z,39.30
2018-08-06T13:23:43.140Z,39.20
2018-08-06T13:28:47.237Z,39.50
2018-08-06T13:33:51.400Z,39.40
2018-08-06T13:38:55.489Z,39.80
2018-08-06T13:43:59.713Z,40.20
2018-08-06T13:49:04.003Z,40.50
2018-08-06T13:54:08.758Z,40.70
2018-08-06T13:59:19.670Z,40.90
2018-08-06T14:04:31.097Z,40.40
2018-08-06T14:09:42.024Z,40.60
2018-08-06T14:14:46.358Z,40.80
2018-08-06T14:19:50.930Z,41.10
2018-08-06T14:24:59.083Z,41.40
2018-08-06T14:30:03.353Z,41.50
2018-08-06T14:35:07.629Z,40.10
2018-08-06T14:40:14.490Z,39.50
2018-08-06T14:45:18.876Z,39.00
2018-08-06T14:50:23.773Z,39.20
2018-08-06T14:55:27.911Z,38.80
2018-08-06T15:00:32.707Z,38.80
2018-08-06T15:05:37.145Z,39.00
2018-08-06T15:10:41.289Z,38.90
2018-08-06T15:15:45.446Z,38.80
2018-08-06T15:20:49.946Z,38.80
2018-08-06T15:25:53.857Z,39.20
2018-08-06T15:30:58.340Z,39.90
2018-08-06T15:36:02.750Z,40.00
2018-08-06T15:41:07.281Z,39.60
2018-08-06T15:46:11.426Z,39.50
2018-08-06T15:51:16.264Z,39.10
2018-08-06T15:56:20.168Z,39.20
2018-08-06T16:01:25.433Z,39.30
2018-08-06T16:06:29.785Z,38.60
2018-08-06T16:11:34.045Z,38.60
2018-08-06T16:16:39.151Z,38.50
2018-08-06T16:21:43.204Z,38.60
2018-08-06T16:26:47.657Z,38.40
2018-08-06T16:31:51.927Z,38.30
2018-08-06T16:36:56.082Z,38.20
2018-08-06T16:42:00.205Z,38.00
2018-08-06T16:47:04.568Z,37.80
2018-08-06T16:52:09.220Z,37.70
2018-08-06T16:57:13.528Z,37.70
2018-08-06T17:02:41.956Z,36.80
2018-08-06T17:13:30.340Z,34.70
2018-08-06T17:18:34.859Z,34.00
2018-08-06T17:23:40.051Z,33.30
2018-08-06T17:29:11.185Z,33.10
2018-08-06T17:34:16.681Z,32.70
2018-08-06T17:39:20.782Z,32.00
2018-08-06T17:44:25.787Z,31.40
2018-08-06T17:49:47.723Z,31.30
2018-08-06T17:54:52.974Z,27.80
2018-08-06T17:59:57.242Z,26.50
2018-08-06T18:05:37.109Z,26.00
2018-08-06T18:10:42.547Z,26.10
2018-08-06T18:15:59.410Z,25.90
2018-08-06T18:32:34.766Z,25.80
2018-08-06T18:37:39.866Z,26.20
2018-08-06T18:48:08.818Z,27.00
2018-08-06T19:04:23.662Z,27.10
2018-08-06T19:09:27.756Z,27.00
2018-08-06T19:14:34.154Z,26.90
2018-08-06T19:19:47.250Z,26.80
2018-08-06T19:24:57.510Z,26.90
2018-08-06T19:30:01.582Z,27.00
2018-08-06T19:35:06.097Z,27.00
2018-08-06T19:40:11.083Z,26.60
2018-08-06T19:45:17.066Z,26.80
2018-08-06T19:50:26.230Z,26.90
2018-08-06T19:55:35.303Z,27.00
2018-08-06T20:05:43.042Z,26.80
2018-08-06T20:10:47.166Z,26.50
2018-08-06T20:15:51.055Z,26.70
2018-08-06T20:20:55.677Z,27.20
2018-08-06T20:25:59.915Z,27.60
2018-08-06T20:31:04.033Z,27.90
2018-08-06T20:36:08.200Z,27.80
2018-08-06T20:41:12.159Z,27.80
2018-08-06T20:46:15.997Z,27.90
2018-08-06T20:51:21.306Z,27.90
2018-08-06T20:56:25.516Z,27.90
2018-08-06T21:01:29.441Z,27.80
2018-08-06T21:06:33.373Z,27.90
2018-08-06T21:11:37.486Z,27.80
2018-08-06T21:16:41.480Z,27.90
2018-08-06T21:21:45.718Z,28.00
2018-08-06T21:26:50.251Z,28.10
2018-08-06T21:31:54.194Z,28.10
2018-08-06T21:36:58.022Z,28.10
2018-08-06T21:42:02.155Z,28.10
2018-08-06T21:47:06.053Z,28.00
2018-08-06T21:52:10.157Z,28.00
2018-08-06T21:57:15.417Z,27.90
2018-08-06T22:02:19.315Z,27.80
2018-08-06T22:07:23.912Z,27.70
2018-08-06T22:12:28.143Z,27.70
2018-08-06T22:17:33.209Z,27.50
2018-08-06T22:22:37.929Z,27.50
2018-08-06T22:27:42.259Z,27.40
2018-08-06T22:32:46.244Z,27.40
2018-08-06T22:37:50.007Z,27.30
2018-08-06T22:42:53.985Z,27.30
2018-08-06T22:47:57.902Z,27.20
2018-08-06T22:53:01.637Z,27.20
2018-08-06T22:58:05.418Z,27.10
2018-08-06T23:03:09.757Z,27.00
2018-08-06T23:08:13.487Z,27.00
2018-08-06T23:13:17.374Z,27.00
2018-08-06T23:18:21.118Z,26.90
2018-08-06T23:23:24.905Z,26.90
2018-08-06T23:28:28.720Z,26.80
2018-08-06T23:33:32.435Z,26.80
2018-08-06T23:38:36.169Z,26.80
2018-08-06T23:43:39.899Z,26.80
2018-08-06T23:48:43.690Z,26.50
2018-08-06T23:53:47.492Z,25.90
2018-08-06T23:58:51.302Z,26.00
